sensor_id;sensor_type;location;lat;lon;timestamp;P1;durP1;ratioP1;P2;durP2;ratioP2
21647;SDS011;10985;54.182;7.890;2023-02-28T00:00:12;17.90;;;3.35;;
21647;SDS011;10985;54.182;7.890;2023-02-28T00:02:39;18.60;;;3.63;;
21647;SDS011;10985;54.182;7.890;2023-02-28T00:05:06;12.90;;;4.05;;
21647;SDS011;10985;54.182;7.890;2023-02-28T00:07:33;13.00;;;4.03;;
21647;SDS011;10985;54.182;7.890;2023-02-28T00:09:59;15.20;;;3.60;;
21647;SDS011;10985;54.182;7.890;2023-02-28T00:12:25;8.10;;;4.03;;
21647;SDS011;10985;54.182;7.890;2023-02-28T00:14:51;11.73;;;3.90;;
21647;SDS011;10985;54.182;7.890;2023-02-28T00:17:16;16.45;;;4.20;;
21647;SDS011;10985;54.182;7.890;2023-02-28T00:19:45;19.70;;;5.35;;
21647;SDS011;10985;54.182;7.890;2023-02-28T00:22:13;11.55;;;4.30;;
21647;SDS011;10985;54.182;7.890;2023-02-28T00:24:39;11.80;;;3.90;;
21647;SDS011;10985;54.182;7.890;2023-02-28T00:27:04;14.45;;;4.30;;
21647;SDS011;10985;54.182;7.890;2023-02-28T00:29:30;10.95;;;4.47;;
21647;SDS011;10985;54.182;7.890;2023-02-28T00:31:55;14.10;;;4.18;;
21647;SDS011;10985;54.182;7.890;2023-02-28T00:34:21;8.70;;;4.00;;
21647;SDS011;10985;54.182;7.890;2023-02-28T00:36:46;12.80;;;5.13;;
21647;SDS011;10985;54.182;7.890;2023-02-28T00:39:13;12.25;;;4.30;;
21647;SDS011;10985;54.182;7.890;2023-02-28T00:41:39;7.65;;;4.25;;
21647;SDS011;10985;54.182;7.890;2023-02-28T00:44:05;16.35;;;5.22;;
21647;SDS011;10985;54.182;7.890;2023-02-28T00:46:30;16.10;;;5.43;;
21647;SDS011;10985;54.182;7.890;2023-02-28T00:48:56;15.32;;;4.93;;
21647;SDS011;10985;54.182;7.890;2023-02-28T00:51:21;8.65;;;4.55;;
21647;SDS011;10985;54.182;7.890;2023-02-28T00:53:47;9.63;;;4.43;;
21647;SDS011;10985;54.182;7.890;2023-02-28T00:56:12;11.60;;;4.53;;
21647;SDS011;10985;54.182;7.890;2023-02-28T00:58:38;8.63;;;5.00;;
21647;SDS011;10985;54.182;7.890;2023-02-28T01:01:04;11.35;;;4.40;;
21647;SDS011;10985;54.182;7.890;2023-02-28T01:03:30;12.85;;;4.57;;
21647;SDS011;10985;54.182;7.890;2023-02-28T01:05:55;14.38;;;4.53;;
21647;SDS011;10985;54.182;7.890;2023-02-28T01:08:21;9.18;;;4.60;;
21647;SDS011;10985;54.182;7.890;2023-02-28T01:10:47;8.32;;;4.35;;
21647;SDS011;10985;54.182;7.890;2023-02-28T01:13:13;14.35;;;5.50;;
21647;SDS011;10985;54.182;7.890;2023-02-28T01:15:43;14.13;;;5.60;;
21647;SDS011;10985;54.182;7.890;2023-02-28T01:18:14;6.70;;;4.18;;
21647;SDS011;10985;54.182;7.890;2023-02-28T01:20:40;6.78;;;4.60;;
21647;SDS011;10985;54.182;7.890;2023-02-28T01:23:05;11.63;;;4.60;;
21647;SDS011;10985;54.182;7.890;2023-02-28T01:25:31;7.25;;;4.97;;
21647;SDS011;10985;54.182;7.890;2023-02-28T01:27:59;10.07;;;4.63;;
21647;SDS011;10985;54.182;7.890;2023-02-28T01:30:25;7.57;;;5.05;;
21647;SDS011;10985;54.182;7.890;2023-02-28T01:32:50;6.35;;;4.78;;
21647;SDS011;10985;54.182;7.890;2023-02-28T01:35:18;12.95;;;5.25;;
21647;SDS011;10985;54.182;7.890;2023-02-28T01:37:44;7.80;;;4.85;;
21647;SDS011;10985;54.182;7.890;2023-02-28T01:40:09;9.73;;;5.32;;
21647;SDS011;10985;54.182;7.890;2023-02-28T01:42:35;7.15;;;5.32;;
21647;SDS011;10985;54.182;7.890;2023-02-28T01:47:34;11.48;;;5.03;;
21647;SDS011;10985;54.182;7.890;2023-02-28T01:50:04;9.27;;;4.82;;
21647;SDS011;10985;54.182;7.890;2023-02-28T01:52:34;10.30;;;4.78;;
21647;SDS011;10985;54.182;7.890;2023-02-28T01:55:00;8.38;;;5.40;;
21647;SDS011;10985;54.182;7.890;2023-02-28T01:57:30;7.25;;;5.68;;
21647;SDS011;10985;54.182;7.890;2023-02-28T02:00:24;9.50;;;5.03;;
21647;SDS011;10985;54.182;7.890;2023-02-28T02:02:53;8.93;;;4.97;;
21647;SDS011;10985;54.182;7.890;2023-02-28T02:05:23;8.52;;;5.60;;
21647;SDS011;10985;54.182;7.890;2023-02-28T02:07:54;9.98;;;5.63;;
21647;SDS011;10985;54.182;7.890;2023-02-28T02:10:55;8.77;;;5.28;;
21647;SDS011;10985;54.182;7.890;2023-02-28T02:13:38;15.25;;;5.45;;
21647;SDS011;10985;54.182;7.890;2023-02-28T02:18:54;8.52;;;5.47;;
21647;SDS011;10985;54.182;7.890;2023-02-28T02:24:49;12.80;;;5.93;;
21647;SDS011;10985;54.182;7.890;2023-02-28T02:36:06;27.10;;;6.88;;
21647;SDS011;10985;54.182;7.890;2023-02-28T02:38:55;25.77;;;7.60;;
21647;SDS011;10985;54.182;7.890;2023-02-28T02:41:40;23.55;;;7.03;;
21647;SDS011;10985;54.182;7.890;2023-02-28T02:47:12;9.48;;;6.10;;
21647;SDS011;10985;54.182;7.890;2023-02-28T02:49:42;10.52;;;5.80;;
21647;SDS011;10985;54.182;7.890;2023-02-28T02:52:13;14.18;;;5.93;;
21647;SDS011;10985;54.182;7.890;2023-02-28T02:54:43;13.77;;;5.75;;
21647;SDS011;10985;54.182;7.890;2023-02-28T02:57:19;7.40;;;5.68;;
21647;SDS011;10985;54.182;7.890;2023-02-28T02:59:55;8.90;;;5.32;;
21647;SDS011;10985;54.182;7.890;2023-02-28T03:02:22;6.68;;;5.93;;
21647;SDS011;10985;54.182;7.890;2023-02-28T03:04:50;8.27;;;5.78;;
21647;SDS011;10985;54.182;7.890;2023-02-28T03:07:18;8.98;;;5.90;;
21647;SDS011;10985;54.182;7.890;2023-02-28T03:09:54;8.90;;;6.18;;
21647;SDS011;10985;54.182;7.890;2023-02-28T03:12:21;7.93;;;6.03;;
21647;SDS011;10985;54.182;7.890;2023-02-28T03:14:56;9.35;;;6.10;;
21647;SDS011;10985;54.182;7.890;2023-02-28T03:23:35;6.63;;;6.03;;
21647;SDS011;10985;54.182;7.890;2023-02-28T03:26:16;9.80;;;6.63;;
21647;SDS011;10985;54.182;7.890;2023-02-28T03:31:20;8.07;;;6.57;;
21647;SDS011;10985;54.182;7.890;2023-02-28T03:34:17;11.02;;;6.95;;
21647;SDS011;10985;54.182;7.890;2023-02-28T03:36:50;12.27;;;6.72;;
21647;SDS011;10985;54.182;7.890;2023-02-28T03:39:22;11.02;;;6.93;;
21647;SDS011;10985;54.182;7.890;2023-02-28T03:41:58;8.35;;;7.00;;
21647;SDS011;10985;54.182;7.890;2023-02-28T03:44:29;9.77;;;7.07;;
21647;SDS011;10985;54.182;7.890;2023-02-28T03:47:03;7.97;;;6.95;;
21647;SDS011;10985;54.182;7.890;2023-02-28T03:49:36;13.18;;;8.00;;
21647;SDS011;10985;54.182;7.890;2023-02-28T03:52:08;10.77;;;7.60;;
21647;SDS011;10985;54.182;7.890;2023-02-28T03:54:35;10.93;;;7.82;;
21647;SDS011;10985;54.182;7.890;2023-02-28T03:57:10;9.90;;;8.23;;
21647;SDS011;10985;54.182;7.890;2023-02-28T03:59:42;11.10;;;8.18;;
21647;SDS011;10985;54.182;7.890;2023-02-28T04:02:11;12.40;;;8.95;;
21647;SDS011;10985;54.182;7.890;2023-02-28T04:04:37;16.55;;;8.90;;
21647;SDS011;10985;54.182;7.890;2023-02-28T04:07:04;11.27;;;8.27;;
21647;SDS011;10985;54.182;7.890;2023-02-28T04:09:34;12.93;;;9.07;;
21647;SDS011;10985;54.182;7.890;2023-02-28T04:11:59;15.18;;;9.45;;
21647;SDS011;10985;54.182;7.890;2023-02-28T04:14:25;12.40;;;9.07;;
21647;SDS011;10985;54.182;7.890;2023-02-28T04:16:51;13.18;;;9.68;;
21647;SDS011;10985;54.182;7.890;2023-02-28T04:19:17;10.60;;;8.88;;
21647;SDS011;10985;54.182;7.890;2023-02-28T04:21:47;16.48;;;9.60;;
21647;SDS011;10985;54.182;7.890;2023-02-28T04:24:16;13.10;;;9.95;;
21647;SDS011;10985;54.182;7.890;2023-02-28T04:26:43;13.32;;;9.80;;
21647;SDS011;10985;54.182;7.890;2023-02-28T04:29:17;15.65;;;10.85;;
21647;SDS011;10985;54.182;7.890;2023-02-28T04:31:44;15.85;;;10.43;;
21647;SDS011;10985;54.182;7.890;2023-02-28T04:34:10;17.65;;;10.70;;
21647;SDS011;10985;54.182;7.890;2023-02-28T04:36:35;11.57;;;10.10;;
21647;SDS011;10985;54.182;7.890;2023-02-28T04:39:01;17.15;;;10.70;;
21647;SDS011;10985;54.182;7.890;2023-02-28T04:41:28;17.75;;;10.75;;
21647;SDS011;10985;54.182;7.890;2023-02-28T04:43:54;15.23;;;10.60;;
21647;SDS011;10985;54.182;7.890;2023-02-28T04:46:21;16.48;;;10.15;;
21647;SDS011;10985;54.182;7.890;2023-02-28T04:48:47;12.27;;;10.35;;
21647;SDS011;10985;54.182;7.890;2023-02-28T04:51:13;14.55;;;10.10;;
21647;SDS011;10985;54.182;7.890;2023-02-28T04:53:41;17.88;;;10.23;;
21647;SDS011;10985;54.182;7.890;2023-02-28T04:56:08;15.35;;;10.10;;
21647;SDS011;10985;54.182;7.890;2023-02-28T04:58:36;13.35;;;10.50;;
21647;SDS011;10985;54.182;7.890;2023-02-28T05:01:44;15.40;;;10.63;;
21647;SDS011;10985;54.182;7.890;2023-02-28T05:03:52;17.55;;;11.00;;
21647;SDS011;10985;54.182;7.890;2023-02-28T05:06:19;13.23;;;10.70;;
21647;SDS011;10985;54.182;7.890;2023-02-28T05:08:46;15.77;;;10.82;;
21647;SDS011;10985;54.182;7.890;2023-02-28T05:11:13;13.52;;;10.00;;
21647;SDS011;10985;54.182;7.890;2023-02-28T05:13:42;17.52;;;10.93;;
21647;SDS011;10985;54.182;7.890;2023-02-28T05:16:08;22.20;;;11.73;;
21647;SDS011;10985;54.182;7.890;2023-02-28T05:18:33;18.45;;;10.93;;
21647;SDS011;10985;54.182;7.890;2023-02-28T05:20:59;16.75;;;11.55;;
21647;SDS011;10985;54.182;7.890;2023-02-28T05:23:27;19.90;;;11.30;;
21647;SDS011;10985;54.182;7.890;2023-02-28T05:25:52;20.08;;;12.20;;
21647;SDS011;10985;54.182;7.890;2023-02-28T05:28:19;19.77;;;11.40;;
21647;SDS011;10985;54.182;7.890;2023-02-28T05:30:45;23.30;;;13.05;;
21647;SDS011;10985;54.182;7.890;2023-02-28T05:33:11;27.05;;;14.00;;
21647;SDS011;10985;54.182;7.890;2023-02-28T05:35:37;29.25;;;15.88;;
21647;SDS011;10985;54.182;7.890;2023-02-28T05:38:04;32.17;;;19.15;;
21647;SDS011;10985;54.182;7.890;2023-02-28T05:40:30;37.60;;;21.40;;
21647;SDS011;10985;54.182;7.890;2023-02-28T05:42:55;42.63;;;25.75;;
21647;SDS011;10985;54.182;7.890;2023-02-28T05:45:21;52.65;;;28.67;;
21647;SDS011;10985;54.182;7.890;2023-02-28T05:47:46;55.30;;;29.27;;
21647;SDS011;10985;54.182;7.890;2023-02-28T05:50:11;62.00;;;31.73;;
21647;SDS011;10985;54.182;7.890;2023-02-28T05:52:37;60.40;;;32.35;;
21647;SDS011;10985;54.182;7.890;2023-02-28T05:55:03;71.00;;;30.50;;
21647;SDS011;10985;54.182;7.890;2023-02-28T05:57:28;60.65;;;30.05;;
21647;SDS011;10985;54.182;7.890;2023-02-28T05:59:54;52.83;;;27.55;;
21647;SDS011;10985;54.182;7.890;2023-02-28T06:02:19;53.70;;;26.50;;
21647;SDS011;10985;54.182;7.890;2023-02-28T06:04:45;54.25;;;28.45;;
21647;SDS011;10985;54.182;7.890;2023-02-28T06:07:11;57.50;;;26.83;;
21647;SDS011;10985;54.182;7.890;2023-02-28T06:09:36;53.95;;;27.27;;
21647;SDS011;10985;54.182;7.890;2023-02-28T06:12:03;52.10;;;26.30;;
21647;SDS011;10985;54.182;7.890;2023-02-28T06:14:30;54.53;;;27.67;;
21647;SDS011;10985;54.182;7.890;2023-02-28T06:16:58;50.83;;;25.25;;
21647;SDS011;10985;54.182;7.890;2023-02-28T06:19:24;55.88;;;26.65;;
21647;SDS011;10985;54.182;7.890;2023-02-28T06:21:53;55.88;;;27.33;;
21647;SDS011;10985;54.182;7.890;2023-02-28T06:24:19;54.60;;;27.30;;
21647;SDS011;10985;54.182;7.890;2023-02-28T06:26:46;56.35;;;27.25;;
21647;SDS011;10985;54.182;7.890;2023-02-28T06:29:12;49.92;;;27.35;;
21647;SDS011;10985;54.182;7.890;2023-02-28T06:31:41;53.60;;;28.13;;
21647;SDS011;10985;54.182;7.890;2023-02-28T06:34:06;46.95;;;25.95;;
21647;SDS011;10985;54.182;7.890;2023-02-28T06:36:32;47.28;;;26.58;;
21647;SDS011;10985;54.182;7.890;2023-02-28T06:38:57;50.60;;;25.80;;
21647;SDS011;10985;54.182;7.890;2023-02-28T06:41:26;46.53;;;25.42;;
21647;SDS011;10985;54.182;7.890;2023-02-28T06:43:52;46.33;;;25.10;;
21647;SDS011;10985;54.182;7.890;2023-02-28T06:46:18;46.30;;;25.02;;
21647;SDS011;10985;54.182;7.890;2023-02-28T06:48:44;48.50;;;23.92;;
21647;SDS011;10985;54.182;7.890;2023-02-28T06:51:12;45.70;;;23.00;;
21647;SDS011;10985;54.182;7.890;2023-02-28T06:53:40;42.50;;;22.40;;
21647;SDS011;10985;54.182;7.890;2023-02-28T06:56:07;37.95;;;21.38;;
21647;SDS011;10985;54.182;7.890;2023-02-28T06:58:35;41.17;;;22.67;;
21647;SDS011;10985;54.182;7.890;2023-02-28T07:01:01;44.78;;;25.17;;
21647;SDS011;10985;54.182;7.890;2023-02-28T07:03:27;43.17;;;23.50;;
21647;SDS011;10985;54.182;7.890;2023-02-28T07:05:53;41.83;;;22.67;;
21647;SDS011;10985;54.182;7.890;2023-02-28T07:08:21;41.63;;;23.55;;
21647;SDS011;10985;54.182;7.890;2023-02-28T07:10:47;44.17;;;24.00;;
21647;SDS011;10985;54.182;7.890;2023-02-28T07:13:16;42.75;;;23.38;;
21647;SDS011;10985;54.182;7.890;2023-02-28T07:15:41;42.08;;;23.75;;
21647;SDS011;10985;54.182;7.890;2023-02-28T07:18:07;38.05;;;22.15;;
21647;SDS011;10985;54.182;7.890;2023-02-28T07:20:32;42.25;;;22.75;;
21647;SDS011;10985;54.182;7.890;2023-02-28T07:22:57;33.13;;;21.40;;
21647;SDS011;10985;54.182;7.890;2023-02-28T07:25:23;31.60;;;19.50;;
21647;SDS011;10985;54.182;7.890;2023-02-28T07:27:51;32.20;;;18.02;;
21647;SDS011;10985;54.182;7.890;2023-02-28T07:30:17;30.33;;;17.25;;
21647;SDS011;10985;54.182;7.890;2023-02-28T07:32:42;27.92;;;17.02;;
21647;SDS011;10985;54.182;7.890;2023-02-28T07:35:08;28.15;;;16.08;;
21647;SDS011;10985;54.182;7.890;2023-02-28T07:37:34;19.38;;;14.10;;
21647;SDS011;10985;54.182;7.890;2023-02-28T07:40:06;22.48;;;15.50;;
21647;SDS011;10985;54.182;7.890;2023-02-28T07:42:33;26.00;;;14.63;;
21647;SDS011;10985;54.182;7.890;2023-02-28T07:45:00;21.67;;;14.63;;
21647;SDS011;10985;54.182;7.890;2023-02-28T07:47:26;24.92;;;12.95;;
21647;SDS011;10985;54.182;7.890;2023-02-28T07:49:53;22.67;;;11.57;;
21647;SDS011;10985;54.182;7.890;2023-02-28T07:52:18;18.42;;;10.75;;
21647;SDS011;10985;54.182;7.890;2023-02-28T07:54:44;19.55;;;10.95;;
21647;SDS011;10985;54.182;7.890;2023-02-28T07:57:09;15.35;;;10.20;;
21647;SDS011;10985;54.182;7.890;2023-02-28T07:59:35;20.73;;;10.52;;
21647;SDS011;10985;54.182;7.890;2023-02-28T08:02:00;14.05;;;9.48;;
21647;SDS011;10985;54.182;7.890;2023-02-28T08:04:26;14.85;;;10.48;;
21647;SDS011;10985;54.182;7.890;2023-02-28T08:06:52;15.88;;;10.07;;
21647;SDS011;10985;54.182;7.890;2023-02-28T08:09:18;15.60;;;10.55;;
21647;SDS011;10985;54.182;7.890;2023-02-28T08:11:44;15.05;;;10.52;;
21647;SDS011;10985;54.182;7.890;2023-02-28T08:14:09;21.00;;;12.05;;
21647;SDS011;10985;54.182;7.890;2023-02-28T08:16:35;15.98;;;11.57;;
21647;SDS011;10985;54.182;7.890;2023-02-28T08:19:00;17.67;;;11.98;;
21647;SDS011;10985;54.182;7.890;2023-02-28T08:21:26;21.27;;;11.15;;
21647;SDS011;10985;54.182;7.890;2023-02-28T08:23:51;14.43;;;11.10;;
21647;SDS011;10985;54.182;7.890;2023-02-28T08:26:17;17.95;;;10.95;;
21647;SDS011;10985;54.182;7.890;2023-02-28T08:28:43;16.55;;;10.48;;
21647;SDS011;10985;54.182;7.890;2023-02-28T08:31:10;19.55;;;11.68;;
21647;SDS011;10985;54.182;7.890;2023-02-28T08:33:38;19.20;;;11.68;;
21647;SDS011;10985;54.182;7.890;2023-02-28T08:36:04;15.40;;;11.32;;
21647;SDS011;10985;54.182;7.890;2023-02-28T08:38:31;18.50;;;11.48;;
21647;SDS011;10985;54.182;7.890;2023-02-28T08:40:57;15.23;;;11.38;;
21647;SDS011;10985;54.182;7.890;2023-02-28T08:43:24;17.58;;;10.80;;
21647;SDS011;10985;54.182;7.890;2023-02-28T08:45:53;18.45;;;11.55;;
21647;SDS011;10985;54.182;7.890;2023-02-28T08:48:22;14.55;;;10.60;;
21647;SDS011;10985;54.182;7.890;2023-02-28T08:50:56;20.50;;;11.32;;
21647;SDS011;10985;54.182;7.890;2023-02-28T08:53:21;13.32;;;10.27;;
21647;SDS011;10985;54.182;7.890;2023-02-28T08:55:47;18.70;;;11.30;;
21647;SDS011;10985;54.182;7.890;2023-02-28T08:58:19;14.05;;;10.77;;
21647;SDS011;10985;54.182;7.890;2023-02-28T09:00:45;13.18;;;10.20;;
21647;SDS011;10985;54.182;7.890;2023-02-28T09:03:10;11.75;;;10.02;;
21647;SDS011;10985;54.182;7.890;2023-02-28T09:05:36;14.50;;;10.45;;
21647;SDS011;10985;54.182;7.890;2023-02-28T09:08:01;21.42;;;12.23;;
21647;SDS011;10985;54.182;7.890;2023-02-28T09:10:27;17.67;;;11.57;;
21647;SDS011;10985;54.182;7.890;2023-02-28T09:12:52;15.27;;;11.15;;
21647;SDS011;10985;54.182;7.890;2023-02-28T09:15:18;18.00;;;12.25;;
21647;SDS011;10985;54.182;7.890;2023-02-28T09:17:43;21.35;;;12.45;;
21647;SDS011;10985;54.182;7.890;2023-02-28T09:20:09;18.25;;;12.48;;
21647;SDS011;10985;54.182;7.890;2023-02-28T09:22:35;17.25;;;11.68;;
21647;SDS011;10985;54.182;7.890;2023-02-28T09:25:00;16.65;;;12.68;;
21647;SDS011;10985;54.182;7.890;2023-02-28T09:27:26;19.48;;;12.32;;
21647;SDS011;10985;54.182;7.890;2023-02-28T09:29:51;19.50;;;11.73;;
21647;SDS011;10985;54.182;7.890;2023-02-28T09:32:17;18.35;;;11.40;;
21647;SDS011;10985;54.182;7.890;2023-02-28T09:34:42;15.63;;;11.18;;
21647;SDS011;10985;54.182;7.890;2023-02-28T09:37:08;12.68;;;10.85;;
21647;SDS011;10985;54.182;7.890;2023-02-28T09:39:33;20.02;;;12.32;;
21647;SDS011;10985;54.182;7.890;2023-02-28T09:41:59;19.02;;;11.60;;
21647;SDS011;10985;54.182;7.890;2023-02-28T09:47:18;15.50;;;11.00;;
21647;SDS011;10985;54.182;7.890;2023-02-28T09:49:51;16.23;;;11.23;;
21647;SDS011;10985;54.182;7.890;2023-02-28T09:52:18;21.23;;;13.25;;
21647;SDS011;10985;54.182;7.890;2023-02-28T09:54:46;13.00;;;11.35;;
21647;SDS011;10985;54.182;7.890;2023-02-28T09:57:32;17.13;;;11.35;;
21647;SDS011;10985;54.182;7.890;2023-02-28T10:05:41;14.63;;;11.10;;
21647;SDS011;10985;54.182;7.890;2023-02-28T10:08:27;13.27;;;9.75;;
21647;SDS011;10985;54.182;7.890;2023-02-28T10:11:15;14.75;;;10.05;;
21647;SDS011;10985;54.182;7.890;2023-02-28T10:13:52;14.68;;;10.63;;
21647;SDS011;10985;54.182;7.890;2023-02-28T10:16:30;11.45;;;10.25;;
21647;SDS011;10985;54.182;7.890;2023-02-28T10:18:59;14.10;;;10.57;;
21647;SDS011;10985;54.182;7.890;2023-02-28T10:21:31;14.77;;;10.68;;
21647;SDS011;10985;54.182;7.890;2023-02-28T10:26:58;16.10;;;11.52;;
21647;SDS011;10985;54.182;7.890;2023-02-28T10:29:26;14.73;;;10.10;;
21647;SDS011;10985;54.182;7.890;2023-02-28T10:31:56;11.07;;;9.90;;
21647;SDS011;10985;54.182;7.890;2023-02-28T10:34:22;11.10;;;9.43;;
21647;SDS011;10985;54.182;7.890;2023-02-28T10:36:49;14.40;;;10.27;;
21647;SDS011;10985;54.182;7.890;2023-02-28T10:39:35;12.05;;;9.95;;
21647;SDS011;10985;54.182;7.890;2023-02-28T10:42:02;9.75;;;8.82;;
21647;SDS011;10985;54.182;7.890;2023-02-28T10:44:28;9.75;;;8.73;;
21647;SDS011;10985;54.182;7.890;2023-02-28T10:46:54;10.27;;;7.68;;
21647;SDS011;10985;54.182;7.890;2023-02-28T10:49:22;11.32;;;8.48;;
21647;SDS011;10985;54.182;7.890;2023-02-28T10:51:59;8.60;;;7.70;;
21647;SDS011;10985;54.182;7.890;2023-02-28T10:57:09;10.30;;;8.48;;
21647;SDS011;10985;54.182;7.890;2023-02-28T11:00:05;10.05;;;8.60;;
21647;SDS011;10985;54.182;7.890;2023-02-28T11:02:39;9.80;;;8.80;;
21647;SDS011;10985;54.182;7.890;2023-02-28T11:07:54;9.07;;;8.18;;
21647;SDS011;10985;54.182;7.890;2023-02-28T11:10:28;9.82;;;8.70;;
21647;SDS011;10985;54.182;7.890;2023-02-28T11:12:59;10.80;;;8.30;;
21647;SDS011;10985;54.182;7.890;2023-02-28T11:15:27;9.57;;;8.57;;
21647;SDS011;10985;54.182;7.890;2023-02-28T11:20:30;9.57;;;7.65;;
21647;SDS011;10985;54.182;7.890;2023-02-28T11:22:58;8.15;;;7.35;;
21647;SDS011;10985;54.182;7.890;2023-02-28T11:25:27;7.95;;;6.82;;
21647;SDS011;10985;54.182;7.890;2023-02-28T11:27:56;7.90;;;7.18;;
21647;SDS011;10985;54.182;7.890;2023-02-28T11:30:28;8.55;;;6.75;;
21647;SDS011;10985;54.182;7.890;2023-02-28T11:32:56;7.65;;;6.95;;
21647;SDS011;10985;54.182;7.890;2023-02-28T11:35:30;7.68;;;6.90;;
21647;SDS011;10985;54.182;7.890;2023-02-28T11:38:01;7.85;;;6.25;;
21647;SDS011;10985;54.182;7.890;2023-02-28T11:43:19;7.55;;;5.78;;
21647;SDS011;10985;54.182;7.890;2023-02-28T11:51:44;6.60;;;6.00;;
21647;SDS011;10985;54.182;7.890;2023-02-28T11:54:28;7.45;;;6.20;;
21647;SDS011;10985;54.182;7.890;2023-02-28T11:57:16;7.72;;;6.63;;
21647;SDS011;10985;54.182;7.890;2023-02-28T11:59:55;7.03;;;6.30;;
21647;SDS011;10985;54.182;7.890;2023-02-28T12:02:31;7.07;;;6.38;;
21647;SDS011;10985;54.182;7.890;2023-02-28T12:05:28;7.90;;;6.90;;
21647;SDS011;10985;54.182;7.890;2023-02-28T12:08:40;11.18;;;7.15;;
21647;SDS011;10985;54.182;7.890;2023-02-28T12:16:49;7.75;;;6.53;;
21647;SDS011;10985;54.182;7.890;2023-02-28T12:24:59;7.35;;;6.53;;
21647;SDS011;10985;54.182;7.890;2023-02-28T12:27:46;7.93;;;6.10;;
21647;SDS011;10985;54.182;7.890;2023-02-28T12:30:21;7.20;;;6.60;;
21647;SDS011;10985;54.182;7.890;2023-02-28T12:33:12;7.15;;;6.50;;
21647;SDS011;10985;54.182;7.890;2023-02-28T12:35:43;9.55;;;6.13;;
21647;SDS011;10985;54.182;7.890;2023-02-28T12:38:17;9.52;;;6.82;;
21647;SDS011;10985;54.182;7.890;2023-02-28T12:41:03;7.70;;;7.00;;
21647;SDS011;10985;54.182;7.890;2023-02-28T12:43:46;8.38;;;7.32;;
21647;SDS011;10985;54.182;7.890;2023-02-28T12:46:24;7.90;;;7.13;;
21647;SDS011;10985;54.182;7.890;2023-02-28T12:48:55;7.97;;;7.30;;
21647;SDS011;10985;54.182;7.890;2023-02-28T12:51:24;8.48;;;7.50;;
21647;SDS011;10985;54.182;7.890;2023-02-28T12:56:36;7.68;;;6.88;;
21647;SDS011;10985;54.182;7.890;2023-02-28T13:10:18;7.60;;;6.80;;
21647;SDS011;10985;54.182;7.890;2023-02-28T13:12:51;6.75;;;6.15;;
21647;SDS011;10985;54.182;7.890;2023-02-28T13:15:23;6.47;;;5.80;;
21647;SDS011;10985;54.182;7.890;2023-02-28T13:17:53;9.32;;;6.45;;
21647;SDS011;10985;54.182;7.890;2023-02-28T13:20:27;7.57;;;6.30;;
21647;SDS011;10985;54.182;7.890;2023-02-28T13:23:01;7.07;;;5.97;;
21647;SDS011;10985;54.182;7.890;2023-02-28T13:27:59;7.07;;;6.32;;
21647;SDS011;10985;54.182;7.890;2023-02-28T13:33:36;6.90;;;5.95;;
21647;SDS011;10985;54.182;7.890;2023-02-28T13:36:31;6.47;;;5.85;;
21647;SDS011;10985;54.182;7.890;2023-02-28T13:39:01;7.05;;;6.35;;
21647;SDS011;10985;54.182;7.890;2023-02-28T13:41:45;6.18;;;5.68;;
21647;SDS011;10985;54.182;7.890;2023-02-28T13:44:21;7.28;;;6.05;;
21647;SDS011;10985;54.182;7.890;2023-02-28T14:00:04;7.32;;;5.78;;
21647;SDS011;10985;54.182;7.890;2023-02-28T14:02:37;6.80;;;5.90;;
21647;SDS011;10985;54.182;7.890;2023-02-28T14:05:24;5.65;;;4.90;;
21647;SDS011;10985;54.182;7.890;2023-02-28T14:07:58;7.22;;;5.68;;
21647;SDS011;10985;54.182;7.890;2023-02-28T14:10:31;5.93;;;5.30;;
21647;SDS011;10985;54.182;7.890;2023-02-28T14:15:30;5.85;;;5.35;;
21647;SDS011;10985;54.182;7.890;2023-02-28T14:18:15;7.15;;;6.00;;
21647;SDS011;10985;54.182;7.890;2023-02-28T14:20:54;7.25;;;6.60;;
21647;SDS011;10985;54.182;7.890;2023-02-28T14:26:20;7.53;;;6.47;;
21647;SDS011;10985;54.182;7.890;2023-02-28T14:29:02;7.85;;;7.05;;
21647;SDS011;10985;54.182;7.890;2023-02-28T14:31:54;9.25;;;8.35;;
21647;SDS011;10985;54.182;7.890;2023-02-28T14:34:42;8.95;;;8.05;;
21647;SDS011;10985;54.182;7.890;2023-02-28T14:37:20;8.95;;;8.15;;
21647;SDS011;10985;54.182;7.890;2023-02-28T14:39:51;8.95;;;8.10;;
21647;SDS011;10985;54.182;7.890;2023-02-28T14:42:28;8.77;;;7.95;;
21647;SDS011;10985;54.182;7.890;2023-02-28T14:44:58;9.52;;;8.65;;
21647;SDS011;10985;54.182;7.890;2023-02-28T14:47:33;11.57;;;8.77;;
21647;SDS011;10985;54.182;7.890;2023-02-28T14:50:01;9.55;;;8.57;;
21647;SDS011;10985;54.182;7.890;2023-02-28T14:52:29;12.82;;;9.35;;
21647;SDS011;10985;54.182;7.890;2023-02-28T14:54:58;10.43;;;8.90;;
21647;SDS011;10985;54.182;7.890;2023-02-28T14:57:27;10.45;;;9.35;;
21647;SDS011;10985;54.182;7.890;2023-02-28T14:59:57;9.68;;;8.75;;
21647;SDS011;10985;54.182;7.890;2023-02-28T15:02:24;10.02;;;8.95;;
21647;SDS011;10985;54.182;7.890;2023-02-28T15:04:58;10.63;;;8.40;;
21647;SDS011;10985;54.182;7.890;2023-02-28T15:07:25;9.45;;;8.43;;
21647;SDS011;10985;54.182;7.890;2023-02-28T15:12:44;9.90;;;7.95;;
21647;SDS011;10985;54.182;7.890;2023-02-28T15:15:20;9.25;;;7.88;;
21647;SDS011;10985;54.182;7.890;2023-02-28T15:17:50;9.68;;;7.50;;
21647;SDS011;10985;54.182;7.890;2023-02-28T15:20:21;9.05;;;8.10;;
21647;SDS011;10985;54.182;7.890;2023-02-28T15:22:49;14.23;;;8.15;;
21647;SDS011;10985;54.182;7.890;2023-02-28T15:25:18;8.93;;;8.02;;
21647;SDS011;10985;54.182;7.890;2023-02-28T15:27:47;10.00;;;8.25;;
21647;SDS011;10985;54.182;7.890;2023-02-28T15:30:20;10.30;;;7.75;;
21647;SDS011;10985;54.182;7.890;2023-02-28T15:33:06;10.23;;;8.30;;
21647;SDS011;10985;54.182;7.890;2023-02-28T15:35:43;11.85;;;7.80;;
21647;SDS011;10985;54.182;7.890;2023-02-28T15:40:53;11.80;;;7.82;;
21647;SDS011;10985;54.182;7.890;2023-02-28T15:43:26;10.25;;;8.07;;
21647;SDS011;10985;54.182;7.890;2023-02-28T15:46:08;8.02;;;7.35;;
21647;SDS011;10985;54.182;7.890;2023-02-28T15:48:36;10.20;;;8.82;;
21647;SDS011;10985;54.182;7.890;2023-02-28T15:51:17;9.52;;;8.50;;
21647;SDS011;10985;54.182;7.890;2023-02-28T15:56:22;10.55;;;8.25;;
21647;SDS011;10985;54.182;7.890;2023-02-28T15:58:50;9.65;;;8.68;;
21647;SDS011;10985;54.182;7.890;2023-02-28T16:01:27;10.80;;;9.38;;
21647;SDS011;10985;54.182;7.890;2023-02-28T16:03:59;10.02;;;9.02;;
21647;SDS011;10985;54.182;7.890;2023-02-28T16:07:04;12.38;;;9.80;;
21647;SDS011;10985;54.182;7.890;2023-02-28T16:09:31;11.48;;;10.02;;
21647;SDS011;10985;54.182;7.890;2023-02-28T16:12:00;11.10;;;8.70;;
21647;SDS011;10985;54.182;7.890;2023-02-28T16:14:27;9.73;;;8.73;;
21647;SDS011;10985;54.182;7.890;2023-02-28T16:17:04;11.80;;;9.60;;
21647;SDS011;10985;54.182;7.890;2023-02-28T16:19:31;11.48;;;9.88;;
21647;SDS011;10985;54.182;7.890;2023-02-28T16:21:57;10.38;;;8.60;;
21647;SDS011;10985;54.182;7.890;2023-02-28T16:24:22;15.32;;;9.98;;
21647;SDS011;10985;54.182;7.890;2023-02-28T16:26:48;11.18;;;9.20;;
21647;SDS011;10985;54.182;7.890;2023-02-28T16:29:19;12.02;;;9.23;;
21647;SDS011;10985;54.182;7.890;2023-02-28T16:31:59;12.73;;;8.48;;
21647;SDS011;10985;54.182;7.890;2023-02-28T16:34:26;13.98;;;9.45;;
21647;SDS011;10985;54.182;7.890;2023-02-28T16:36:51;13.02;;;9.15;;
21647;SDS011;10985;54.182;7.890;2023-02-28T16:39:18;10.68;;;9.27;;
21647;SDS011;10985;54.182;7.890;2023-02-28T16:41:47;9.50;;;8.50;;
21647;SDS011;10985;54.182;7.890;2023-02-28T16:44:24;10.55;;;9.30;;